sensor_id;sensor_type;location;lat;lon;timestamp;P1;durP1;ratioP1;P2;durP2;ratioP2
65045;SDS011;54657;52.022;5.534;2023-11-21T00:01:35;16.55;;;8.25;;
65045;SDS011;54657;52.022;5.534;2023-11-21T00:04:01;15.35;;;8.52;;
65045;SDS011;54657;52.022;5.534;2023-11-21T00:06:27;13.02;;;8.60;;
65045;SDS011;54657;52.022;5.534;2023-11-21T00:08:52;13.75;;;8.68;;
65045;SDS011;54657;52.022;5.534;2023-11-21T00:11:18;12.88;;;8.10;;
65045;SDS011;54657;52.022;5.534;2023-11-21T00:13:43;13.25;;;8.30;;
65045;SDS011;54657;52.022;5.534;2023-11-21T00:16:10;13.32;;;8.32;;
65045;SDS011;54657;52.022;5.534;2023-11-21T00:18:36;15.48;;;9.25;;
65045;SDS011;54657;52.022;5.534;2023-11-21T00:21:01;13.57;;;7.60;;
65045;SDS011;54657;52.022;5.534;2023-11-21T00:23:28;13.90;;;8.40;;
65045;SDS011;54657;52.022;5.534;2023-11-21T00:25:54;12.95;;;8.00;;
65045;SDS011;54657;52.022;5.534;2023-11-21T00:28:19;17.05;;;8.15;;
65045;SDS011;54657;52.022;5.534;2023-11-21T00:30:45;18.10;;;8.23;;
65045;SDS011;54657;52.022;5.534;2023-11-21T00:33:10;15.30;;;8.10;;
65045;SDS011;54657;52.022;5.534;2023-11-21T00:35:36;17.42;;;8.10;;
65045;SDS011;54657;52.022;5.534;2023-11-21T00:38:01;13.90;;;8.07;;
65045;SDS011;54657;52.022;5.534;2023-11-21T00:40:28;14.57;;;7.80;;
65045;SDS011;54657;52.022;5.534;2023-11-21T00:42:54;14.63;;;7.90;;
65045;SDS011;54657;52.022;5.534;2023-11-21T00:45:21;13.02;;;7.88;;
65045;SDS011;54657;52.022;5.534;2023-11-21T00:47:46;11.93;;;7.38;;
65045;SDS011;54657;52.022;5.534;2023-11-21T00:50:12;13.93;;;8.55;;
65045;SDS011;54657;52.022;5.534;2023-11-21T00:52:37;14.85;;;7.90;;
65045;SDS011;54657;52.022;5.534;2023-11-21T00:55:03;13.35;;;7.88;;
65045;SDS011;54657;52.022;5.534;2023-11-21T00:57:32;13.27;;;8.23;;
65045;SDS011;54657;52.022;5.534;2023-11-21T00:59:58;15.30;;;8.57;;
65045;SDS011;54657;52.022;5.534;2023-11-21T01:02:23;13.82;;;9.05;;
65045;SDS011;54657;52.022;5.534;2023-11-21T01:04:50;13.65;;;7.75;;
65045;SDS011;54657;52.022;5.534;2023-11-21T01:07:15;14.70;;;8.73;;
65045;SDS011;54657;52.022;5.534;2023-11-21T01:09:41;13.55;;;8.50;;
65045;SDS011;54657;52.022;5.534;2023-11-21T01:12:07;15.25;;;8.43;;
65045;SDS011;54657;52.022;5.534;2023-11-21T01:14:32;12.35;;;8.30;;
65045;SDS011;54657;52.022;5.534;2023-11-21T01:16:58;13.15;;;7.43;;
65045;SDS011;54657;52.022;5.534;2023-11-21T01:19:23;11.43;;;7.53;;
65045;SDS011;54657;52.022;5.534;2023-11-21T01:21:49;10.95;;;7.45;;
65045;SDS011;54657;52.022;5.534;2023-11-21T01:24:14;11.55;;;7.13;;
65045;SDS011;54657;52.022;5.534;2023-11-21T01:26:40;12.48;;;7.93;;
65045;SDS011;54657;52.022;5.534;2023-11-21T01:29:05;12.45;;;7.18;;
65045;SDS011;54657;52.022;5.534;2023-11-21T01:31:31;10.68;;;7.07;;
65045;SDS011;54657;52.022;5.534;2023-11-21T01:33:56;12.68;;;7.30;;
65045;SDS011;54657;52.022;5.534;2023-11-21T01:36:22;16.15;;;8.45;;
65045;SDS011;54657;52.022;5.534;2023-11-21T01:38:47;11.95;;;7.63;;
65045;SDS011;54657;52.022;5.534;2023-11-21T01:41:13;10.10;;;7.03;;
65045;SDS011;54657;52.022;5.534;2023-11-21T01:43:39;13.82;;;7.78;;
65045;SDS011;54657;52.022;5.534;2023-11-21T01:46:05;11.60;;;7.45;;
65045;SDS011;54657;52.022;5.534;2023-11-21T01:48:33;9.88;;;7.78;;
65045;SDS011;54657;52.022;5.534;2023-11-21T01:50:59;13.55;;;7.35;;
65045;SDS011;54657;52.022;5.534;2023-11-21T01:53:25;11.55;;;7.93;;
65045;SDS011;54657;52.022;5.534;2023-11-21T01:55:51;12.32;;;6.72;;
65045;SDS011;54657;52.022;5.534;2023-11-21T01:58:18;11.25;;;7.80;;
65045;SDS011;54657;52.022;5.534;2023-11-21T02:00:44;11.75;;;7.55;;
65045;SDS011;54657;52.022;5.534;2023-11-21T02:03:10;12.52;;;6.93;;
65045;SDS011;54657;52.022;5.534;2023-11-21T02:05:35;10.52;;;6.90;;
65045;SDS011;54657;52.022;5.534;2023-11-21T02:08:01;11.32;;;7.80;;
65045;SDS011;54657;52.022;5.534;2023-11-21T02:10:28;9.38;;;6.53;;
65045;SDS011;54657;52.022;5.534;2023-11-21T02:12:54;10.63;;;6.38;;
65045;SDS011;54657;52.022;5.534;2023-11-21T02:15:21;7.05;;;5.70;;
65045;SDS011;54657;52.022;5.534;2023-11-21T02:17:48;9.27;;;6.70;;
65045;SDS011;54657;52.022;5.534;2023-11-21T02:20:16;9.57;;;6.68;;
65045;SDS011;54657;52.022;5.534;2023-11-21T02:22:43;9.90;;;6.25;;
65045;SDS011;54657;52.022;5.534;2023-11-21T02:25:14;9.95;;;6.50;;
65045;SDS011;54657;52.022;5.534;2023-11-21T02:27:39;10.05;;;6.90;;
65045;SDS011;54657;52.022;5.534;2023-11-21T02:30:05;11.07;;;6.65;;
65045;SDS011;54657;52.022;5.534;2023-11-21T02:32:32;11.07;;;7.20;;
65045;SDS011;54657;52.022;5.534;2023-11-21T02:34:59;10.32;;;6.85;;
65045;SDS011;54657;52.022;5.534;2023-11-21T02:37:32;11.10;;;6.68;;
65045;SDS011;54657;52.022;5.534;2023-11-21T02:39:58;10.75;;;7.07;;
65045;SDS011;54657;52.022;5.534;2023-11-21T02:42:24;10.85;;;6.80;;
65045;SDS011;54657;52.022;5.534;2023-11-21T02:44:50;8.75;;;6.97;;
65045;SDS011;54657;52.022;5.534;2023-11-21T02:47:15;9.48;;;6.57;;
65045;SDS011;54657;52.022;5.534;2023-11-21T02:49:41;9.55;;;6.88;;
65045;SDS011;54657;52.022;5.534;2023-11-21T02:52:07;13.75;;;6.55;;
65045;SDS011;54657;52.022;5.534;2023-11-21T02:54:33;7.70;;;6.15;;
65045;SDS011;54657;52.022;5.534;2023-11-21T02:57:01;9.05;;;6.22;;
65045;SDS011;54657;52.022;5.534;2023-11-21T02:59:27;10.15;;;6.78;;
65045;SDS011;54657;52.022;5.534;2023-11-21T03:01:53;9.10;;;6.45;;
65045;SDS011;54657;52.022;5.534;2023-11-21T03:04:18;10.73;;;6.95;;
65045;SDS011;54657;52.022;5.534;2023-11-21T03:06:44;10.50;;;6.72;;
65045;SDS011;54657;52.022;5.534;2023-11-21T03:09:10;10.05;;;6.43;;
65045;SDS011;54657;52.022;5.534;2023-11-21T03:11:39;11.15;;;7.57;;
65045;SDS011;54657;52.022;5.534;2023-11-21T03:14:05;11.13;;;7.43;;
65045;SDS011;54657;52.022;5.534;2023-11-21T03:16:32;9.95;;;6.75;;
65045;SDS011;54657;52.022;5.534;2023-11-21T03:18:57;11.32;;;7.40;;
65045;SDS011;54657;52.022;5.534;2023-11-21T03:21:23;15.35;;;8.45;;
65045;SDS011;54657;52.022;5.534;2023-11-21T03:23:49;11.23;;;7.10;;
65045;SDS011;54657;52.022;5.534;2023-11-21T03:26:15;10.05;;;7.03;;
65045;SDS011;54657;52.022;5.534;2023-11-21T03:28:41;10.50;;;7.88;;
65045;SDS011;54657;52.022;5.534;2023-11-21T03:31:07;11.00;;;7.70;;
65045;SDS011;54657;52.022;5.534;2023-11-21T03:33:34;12.88;;;7.90;;
65045;SDS011;54657;52.022;5.534;2023-11-21T03:36:00;9.98;;;7.32;;
65045;SDS011;54657;52.022;5.534;2023-11-21T03:38:25;11.68;;;7.72;;
65045;SDS011;54657;52.022;5.534;2023-11-21T03:40:51;12.90;;;7.35;;
65045;SDS011;54657;52.022;5.534;2023-11-21T03:43:16;14.35;;;7.68;;
65045;SDS011;54657;52.022;5.534;2023-11-21T03:45:42;11.13;;;7.88;;
65045;SDS011;54657;52.022;5.534;2023-11-21T03:48:08;11.77;;;7.13;;
65045;SDS011;54657;52.022;5.534;2023-11-21T03:50:34;12.10;;;7.38;;
65045;SDS011;54657;52.022;5.534;2023-11-21T03:53:00;14.48;;;7.97;;
65045;SDS011;54657;52.022;5.534;2023-11-21T03:55:25;12.05;;;6.97;;
65045;SDS011;54657;52.022;5.534;2023-11-21T03:57:51;13.82;;;7.82;;
65045;SDS011;54657;52.022;5.534;2023-11-21T04:00:17;12.35;;;7.68;;
65045;SDS011;54657;52.022;5.534;2023-11-21T04:02:45;12.38;;;7.15;;
65045;SDS011;54657;52.022;5.534;2023-11-21T04:05:11;12.07;;;7.53;;
65045;SDS011;54657;52.022;5.534;2023-11-21T04:07:37;15.57;;;7.55;;
65045;SDS011;54657;52.022;5.534;2023-11-21T04:10:03;13.52;;;8.32;;
65045;SDS011;54657;52.022;5.534;2023-11-21T04:12:33;13.20;;;7.82;;
65045;SDS011;54657;52.022;5.534;2023-11-21T04:14:59;13.15;;;7.60;;
65045;SDS011;54657;52.022;5.534;2023-11-21T04:17:25;16.30;;;7.55;;
65045;SDS011;54657;52.022;5.534;2023-11-21T04:19:50;11.77;;;7.53;;
65045;SDS011;54657;52.022;5.534;2023-11-21T04:22:16;16.13;;;8.15;;
65045;SDS011;54657;52.022;5.534;2023-11-21T04:24:41;17.83;;;7.30;;
65045;SDS011;54657;52.022;5.534;2023-11-21T04:27:07;12.73;;;7.18;;
65045;SDS011;54657;52.022;5.534;2023-11-21T04:29:33;12.18;;;7.57;;
65045;SDS011;54657;52.022;5.534;2023-11-21T04:31:59;10.93;;;7.38;;
65045;SDS011;54657;52.022;5.534;2023-11-21T04:34:24;12.98;;;7.68;;
65045;SDS011;54657;52.022;5.534;2023-11-21T04:36:50;16.67;;;7.65;;
65045;SDS011;54657;52.022;5.534;2023-11-21T04:39:15;11.80;;;6.38;;
65045;SDS011;54657;52.022;5.534;2023-11-21T04:41:41;11.45;;;7.38;;
65045;SDS011;54657;52.022;5.534;2023-11-21T04:44:07;15.48;;;7.95;;
65045;SDS011;54657;52.022;5.534;2023-11-21T04:46:33;14.65;;;7.70;;
65045;SDS011;54657;52.022;5.534;2023-11-21T04:48:58;13.55;;;6.82;;
65045;SDS011;54657;52.022;5.534;2023-11-21T04:51:24;14.35;;;7.53;;
65045;SDS011;54657;52.022;5.534;2023-11-21T04:53:49;12.35;;;6.75;;
65045;SDS011;54657;52.022;5.534;2023-11-21T04:56:15;16.73;;;7.07;;
65045;SDS011;54657;52.022;5.534;2023-11-21T04:58:43;16.13;;;7.90;;
65045;SDS011;54657;52.022;5.534;2023-11-21T05:01:09;11.65;;;6.05;;
65045;SDS011;54657;52.022;5.534;2023-11-21T05:03:35;11.60;;;6.57;;
65045;SDS011;54657;52.022;5.534;2023-11-21T05:06:00;15.48;;;6.93;;
65045;SDS011;54657;52.022;5.534;2023-11-21T05:08:26;16.58;;;8.25;;
65045;SDS011;54657;52.022;5.534;2023-11-21T05:10:52;14.05;;;7.40;;
65045;SDS011;54657;52.022;5.534;2023-11-21T05:13:18;9.95;;;6.88;;
65045;SDS011;54657;52.022;5.534;2023-11-21T05:15:45;13.68;;;7.82;;
65045;SDS011;54657;52.022;5.534;2023-11-21T05:18:10;14.65;;;7.60;;
65045;SDS011;54657;52.022;5.534;2023-11-21T05:20:38;11.15;;;7.35;;
65045;SDS011;54657;52.022;5.534;2023-11-21T05:23:04;15.40;;;7.40;;
65045;SDS011;54657;52.022;5.534;2023-11-21T05:25:30;14.02;;;7.90;;
65045;SDS011;54657;52.022;5.534;2023-11-21T05:27:55;14.52;;;7.38;;
65045;SDS011;54657;52.022;5.534;2023-11-21T05:30:21;11.15;;;6.65;;
65045;SDS011;54657;52.022;5.534;2023-11-21T05:32:47;15.43;;;7.90;;
65045;SDS011;54657;52.022;5.534;2023-11-21T05:35:12;13.40;;;7.20;;
65045;SDS011;54657;52.022;5.534;2023-11-21T05:37:40;14.63;;;7.07;;
65045;SDS011;54657;52.022;5.534;2023-11-21T05:40:07;10.32;;;7.13;;
65045;SDS011;54657;52.022;5.534;2023-11-21T05:42:34;13.70;;;6.95;;
65045;SDS011;54657;52.022;5.534;2023-11-21T05:45:00;10.93;;;6.97;;
65045;SDS011;54657;52.022;5.534;2023-11-21T05:47:43;11.55;;;6.57;;
65045;SDS011;54657;52.022;5.534;2023-11-21T05:50:11;10.48;;;6.72;;
65045;SDS011;54657;52.022;5.534;2023-11-21T05:52:39;13.45;;;6.90;;
65045;SDS011;54657;52.022;5.534;2023-11-21T05:55:06;14.82;;;6.93;;
65045;SDS011;54657;52.022;5.534;2023-11-21T05:57:35;12.82;;;7.03;;
65045;SDS011;54657;52.022;5.534;2023-11-21T06:00:02;12.57;;;6.10;;
65045;SDS011;54657;52.022;5.534;2023-11-21T06:02:47;12.38;;;6.28;;
65045;SDS011;54657;52.022;5.534;2023-11-21T06:05:17;12.40;;;6.40;;
65045;SDS011;54657;52.022;5.534;2023-11-21T06:07:43;14.85;;;7.18;;
65045;SDS011;54657;52.022;5.534;2023-11-21T06:10:10;11.85;;;6.53;;
65045;SDS011;54657;52.022;5.534;2023-11-21T06:12:37;10.73;;;6.32;;
65045;SDS011;54657;52.022;5.534;2023-11-21T06:15:05;11.10;;;5.95;;
65045;SDS011;54657;52.022;5.534;2023-11-21T06:17:34;11.93;;;6.30;;
65045;SDS011;54657;52.022;5.534;2023-11-21T06:20:02;10.93;;;7.15;;
65045;SDS011;54657;52.022;5.534;2023-11-21T06:25:00;13.73;;;7.10;;
65045;SDS011;54657;52.022;5.534;2023-11-21T06:27:27;10.40;;;6.97;;
65045;SDS011;54657;52.022;5.534;2023-11-21T06:29:53;14.25;;;7.32;;
65045;SDS011;54657;52.022;5.534;2023-11-21T06:32:18;10.57;;;7.32;;
65045;SDS011;54657;52.022;5.534;2023-11-21T06:34:45;11.40;;;6.60;;
65045;SDS011;54657;52.022;5.534;2023-11-21T06:37:11;10.02;;;6.10;;
65045;SDS011;54657;52.022;5.534;2023-11-21T06:39:36;16.08;;;7.63;;
65045;SDS011;54657;52.022;5.534;2023-11-21T06:42:03;13.13;;;7.50;;
65045;SDS011;54657;52.022;5.534;2023-11-21T06:44:29;14.30;;;7.95;;
65045;SDS011;54657;52.022;5.534;2023-11-21T06:46:54;9.98;;;7.00;;
65045;SDS011;54657;52.022;5.534;2023-11-21T06:49:20;11.93;;;7.80;;
65045;SDS011;54657;52.022;5.534;2023-11-21T06:51:45;12.32;;;7.30;;
65045;SDS011;54657;52.022;5.534;2023-11-21T06:54:11;12.75;;;7.70;;
65045;SDS011;54657;52.022;5.534;2023-11-21T06:56:37;12.73;;;8.00;;
65045;SDS011;54657;52.022;5.534;2023-11-21T06:59:04;10.80;;;7.20;;
65045;SDS011;54657;52.022;5.534;2023-11-21T07:01:30;13.48;;;7.38;;
65045;SDS011;54657;52.022;5.534;2023-11-21T07:03:59;10.23;;;7.15;;
65045;SDS011;54657;52.022;5.534;2023-11-21T07:06:24;11.85;;;7.88;;
65045;SDS011;54657;52.022;5.534;2023-11-21T07:08:50;11.48;;;7.47;;
65045;SDS011;54657;52.022;5.534;2023-11-21T07:11:15;13.80;;;8.10;;
65045;SDS011;54657;52.022;5.534;2023-11-21T07:13:41;14.30;;;7.80;;
65045;SDS011;54657;52.022;5.534;2023-11-21T07:16:07;14.77;;;8.38;;
65045;SDS011;54657;52.022;5.534;2023-11-21T07:18:33;12.35;;;8.77;;
65045;SDS011;54657;52.022;5.534;2023-11-21T07:20:58;12.73;;;7.75;;
65045;SDS011;54657;52.022;5.534;2023-11-21T07:23:24;11.93;;;7.68;;
65045;SDS011;54657;52.022;5.534;2023-11-21T07:25:49;13.20;;;7.90;;
65045;SDS011;54657;52.022;5.534;2023-11-21T07:28:15;14.07;;;8.02;;
65045;SDS011;54657;52.022;5.534;2023-11-21T07:30:41;12.85;;;7.65;;
65045;SDS011;54657;52.022;5.534;2023-11-21T07:33:07;11.52;;;7.13;;
65045;SDS011;54657;52.022;5.534;2023-11-21T07:35:33;12.27;;;7.20;;
65045;SDS011;54657;52.022;5.534;2023-11-21T07:37:59;13.13;;;7.57;;
65045;SDS011;54657;52.022;5.534;2023-11-21T07:40:24;12.73;;;7.45;;
65045;SDS011;54657;52.022;5.534;2023-11-21T07:42:50;10.90;;;7.40;;
65045;SDS011;54657;52.022;5.534;2023-11-21T07:45:16;13.32;;;7.65;;
65045;SDS011;54657;52.022;5.534;2023-11-21T07:47:41;10.55;;;6.57;;
65045;SDS011;54657;52.022;5.534;2023-11-21T07:50:07;10.82;;;7.45;;
65045;SDS011;54657;52.022;5.534;2023-11-21T07:52:33;12.48;;;7.70;;
65045;SDS011;54657;52.022;5.534;2023-11-21T07:54:59;14.32;;;6.85;;
65045;SDS011;54657;52.022;5.534;2023-11-21T07:57:24;11.70;;;6.40;;
65045;SDS011;54657;52.022;5.534;2023-11-21T07:59:51;11.57;;;7.05;;
65045;SDS011;54657;52.022;5.534;2023-11-21T08:02:18;11.02;;;7.30;;
65045;SDS011;54657;52.022;5.534;2023-11-21T08:04:44;13.60;;;7.55;;
65045;SDS011;54657;52.022;5.534;2023-11-21T08:07:09;12.40;;;7.72;;
65045;SDS011;54657;52.022;5.534;2023-11-21T08:09:36;10.35;;;7.65;;
65045;SDS011;54657;52.022;5.534;2023-11-21T08:12:01;11.10;;;7.18;;
65045;SDS011;54657;52.022;5.534;2023-11-21T08:14:28;13.77;;;7.82;;
65045;SDS011;54657;52.022;5.534;2023-11-21T08:16:53;11.15;;;6.88;;
65045;SDS011;54657;52.022;5.534;2023-11-21T08:19:22;12.38;;;6.57;;
65045;SDS011;54657;52.022;5.534;2023-11-21T08:21:50;9.77;;;6.35;;
65045;SDS011;54657;52.022;5.534;2023-11-21T08:24:16;12.07;;;6.97;;
65045;SDS011;54657;52.022;5.534;2023-11-21T08:26:42;11.88;;;6.63;;
65045;SDS011;54657;52.022;5.534;2023-11-21T08:29:08;12.18;;;7.22;;
65045;SDS011;54657;52.022;5.534;2023-11-21T08:31:33;12.55;;;7.68;;
65045;SDS011;54657;52.022;5.534;2023-11-21T08:33:59;9.23;;;5.88;;
65045;SDS011;54657;52.022;5.534;2023-11-21T08:36:27;12.20;;;6.63;;
65045;SDS011;54657;52.022;5.534;2023-11-21T08:38:53;12.63;;;6.40;;
65045;SDS011;54657;52.022;5.534;2023-11-21T08:41:19;9.07;;;6.35;;
65045;SDS011;54657;52.022;5.534;2023-11-21T08:43:47;8.73;;;6.28;;
65045;SDS011;54657;52.022;5.534;2023-11-21T08:46:13;11.40;;;7.22;;
65045;SDS011;54657;52.022;5.534;2023-11-21T08:48:40;11.15;;;6.50;;
65045;SDS011;54657;52.022;5.534;2023-11-21T08:51:06;10.77;;;6.53;;
65045;SDS011;54657;52.022;5.534;2023-11-21T08:53:32;10.90;;;5.97;;
65045;SDS011;54657;52.022;5.534;2023-11-21T08:55:57;10.90;;;6.15;;
65045;SDS011;54657;52.022;5.534;2023-11-21T08:58:23;10.40;;;6.22;;
65045;SDS011;54657;52.022;5.534;2023-11-21T09:00:49;9.13;;;5.45;;
65045;SDS011;54657;52.022;5.534;2023-11-21T09:03:14;10.65;;;6.38;;
65045;SDS011;54657;52.022;5.534;2023-11-21T09:05:40;13.13;;;6.00;;
65045;SDS011;54657;52.022;5.534;2023-11-21T09:08:05;10.77;;;6.22;;
65045;SDS011;54657;52.022;5.534;2023-11-21T09:10:32;9.95;;;6.05;;
65045;SDS011;54657;52.022;5.534;2023-11-21T09:13:00;8.40;;;6.13;;
65045;SDS011;54657;52.022;5.534;2023-11-21T09:15:27;8.30;;;6.30;;
65045;SDS011;54657;52.022;5.534;2023-11-21T09:17:52;9.02;;;5.65;;
65045;SDS011;54657;52.022;5.534;2023-11-21T09:20:18;7.63;;;6.05;;
65045;SDS011;54657;52.022;5.534;2023-11-21T09:22:47;10.05;;;6.22;;
65045;SDS011;54657;52.022;5.534;2023-11-21T09:25:14;9.25;;;6.63;;
65045;SDS011;54657;52.022;5.534;2023-11-21T09:27:40;13.77;;;6.90;;
65045;SDS011;54657;52.022;5.534;2023-11-21T09:30:06;10.68;;;7.07;;
65045;SDS011;54657;52.022;5.534;2023-11-21T09:32:34;12.07;;;6.65;;
65045;SDS011;54657;52.022;5.534;2023-11-21T09:35:02;10.07;;;7.88;;
65045;SDS011;54657;52.022;5.534;2023-11-21T09:37:28;10.43;;;6.72;;
65045;SDS011;54657;52.022;5.534;2023-11-21T09:39:54;11.57;;;7.32;;
65045;SDS011;54657;52.022;5.534;2023-11-21T09:42:23;9.85;;;7.30;;
65045;SDS011;54657;52.022;5.534;2023-11-21T09:45:15;11.77;;;7.32;;
65045;SDS011;54657;52.022;5.534;2023-11-21T09:47:56;12.05;;;7.20;;
65045;SDS011;54657;52.022;5.534;2023-11-21T09:50:22;13.00;;;8.68;;
65045;SDS011;54657;52.022;5.534;2023-11-21T09:52:54;11.32;;;8.02;;
65045;SDS011;54657;52.022;5.534;2023-11-21T09:55:41;16.85;;;9.02;;
65045;SDS011;54657;52.022;5.534;2023-11-21T09:58:09;12.38;;;7.90;;
65045;SDS011;54657;52.022;5.534;2023-11-21T10:00:37;13.82;;;8.50;;
65045;SDS011;54657;52.022;5.534;2023-11-21T10:03:13;14.60;;;8.25;;
65045;SDS011;54657;52.022;5.534;2023-11-21T10:05:40;13.27;;;8.38;;
65045;SDS011;54657;52.022;5.534;2023-11-21T10:08:08;14.40;;;8.35;;
65045;SDS011;54657;52.022;5.534;2023-11-21T10:10:36;12.65;;;9.18;;
65045;SDS011;54657;52.022;5.534;2023-11-21T10:13:03;12.38;;;7.93;;
65045;SDS011;54657;52.022;5.534;2023-11-21T10:15:32;11.52;;;7.53;;
65045;SDS011;54657;52.022;5.534;2023-11-21T10:18:00;12.52;;;8.15;;
65045;SDS011;54657;52.022;5.534;2023-11-21T10:20:34;12.40;;;7.65;;
65045;SDS011;54657;52.022;5.534;2023-11-21T10:23:00;11.18;;;8.45;;
65045;SDS011;54657;52.022;5.534;2023-11-21T10:25:29;10.65;;;7.93;;
65045;SDS011;54657;52.022;5.534;2023-11-21T10:27:59;10.82;;;8.38;;
65045;SDS011;54657;52.022;5.534;2023-11-21T10:30:36;13.32;;;8.48;;
65045;SDS011;54657;52.022;5.534;2023-11-21T10:33:03;13.65;;;9.00;;
65045;SDS011;54657;52.022;5.534;2023-11-21T10:38:11;12.23;;;8.05;;
65045;SDS011;54657;52.022;5.534;2023-11-21T10:40:40;14.90;;;8.50;;
65045;SDS011;54657;52.022;5.534;2023-11-21T10:43:07;12.32;;;9.15;;
65045;SDS011;54657;52.022;5.534;2023-11-21T10:45:37;17.63;;;8.30;;
65045;SDS011;54657;52.022;5.534;2023-11-21T10:48:07;11.55;;;7.63;;
65045;SDS011;54657;52.022;5.534;2023-11-21T10:50:34;12.80;;;8.73;;
65045;SDS011;54657;52.022;5.534;2023-11-21T10:53:01;13.95;;;9.32;;
65045;SDS011;54657;52.022;5.534;2023-11-21T10:55:29;12.52;;;8.52;;
65045;SDS011;54657;52.022;5.534;2023-11-21T10:57:56;11.65;;;8.43;;
65045;SDS011;54657;52.022;5.534;2023-11-21T11:00:25;9.70;;;7.95;;
65045;SDS011;54657;52.022;5.534;2023-11-21T11:02:52;11.25;;;8.07;;
65045;SDS011;54657;52.022;5.534;2023-11-21T11:05:26;12.48;;;8.07;;
65045;SDS011;54657;52.022;5.534;2023-11-21T11:08:01;10.70;;;7.75;;
65045;SDS011;54657;52.022;5.534;2023-11-21T11:10:29;11.48;;;7.40;;
65045;SDS011;54657;52.022;5.534;2023-11-21T11:12:56;12.85;;;7.88;;
65045;SDS011;54657;52.022;5.534;2023-11-21T11:15:25;8.52;;;6.63;;
65045;SDS011;54657;52.022;5.534;2023-11-21T11:17:52;11.00;;;6.85;;
65045;SDS011;54657;52.022;5.534;2023-11-21T11:20:22;8.38;;;6.53;;
65045;SDS011;54657;52.022;5.534;2023-11-21T11:22:55;7.55;;;5.55;;
65045;SDS011;54657;52.022;5.534;2023-11-21T11:28:22;6.95;;;4.90;;
65045;SDS011;54657;52.022;5.534;2023-11-21T11:36:31;8.02;;;5.35;;
65045;SDS011;54657;52.022;5.534;2023-11-21T11:39:02;7.72;;;5.90;;
65045;SDS011;54657;52.022;5.534;2023-11-21T11:41:31;7.80;;;5.25;;
65045;SDS011;54657;52.022;5.534;2023-11-21T11:44:00;6.47;;;4.95;;
65045;SDS011;54657;52.022;5.534;2023-11-21T11:46:42;7.70;;;4.95;;
65045;SDS011;54657;52.022;5.534;2023-11-21T11:49:11;6.88;;;4.53;;
65045;SDS011;54657;52.022;5.534;2023-11-21T11:52:05;6.90;;;4.40;;
65045;SDS011;54657;52.022;5.534;2023-11-21T11:54:54;7.50;;;4.50;;
65045;SDS011;54657;52.022;5.534;2023-11-21T11:57:23;6.13;;;4.15;;
65045;SDS011;54657;52.022;5.534;2023-11-21T12:02:54;7.82;;;4.68;;
65045;SDS011;54657;52.022;5.534;2023-11-21T12:05:22;7.72;;;4.93;;
65045;SDS011;54657;52.022;5.534;2023-11-21T12:07:52;8.57;;;5.72;;
65045;SDS011;54657;52.022;5.534;2023-11-21T12:10:29;12.27;;;5.70;;
65045;SDS011;54657;52.022;5.534;2023-11-21T12:15:21;9.55;;;5.75;;
65045;SDS011;54657;52.022;5.534;2023-11-21T12:17:48;9.02;;;6.05;;
65045;SDS011;54657;52.022;5.534;2023-11-21T12:20:15;8.52;;;5.55;;
65045;SDS011;54657;52.022;5.534;2023-11-21T12:25:15;9.02;;;5.68;;
65045;SDS011;54657;52.022;5.534;2023-11-21T12:27:45;8.52;;;5.07;;
65045;SDS011;54657;52.022;5.534;2023-11-21T12:30:12;6.95;;;5.18;;
65045;SDS011;54657;52.022;5.534;2023-11-21T12:32:42;8.32;;;5.55;;
65045;SDS011;54657;52.022;5.534;2023-11-21T12:35:16;7.32;;;5.60;;
65045;SDS011;54657;52.022;5.534;2023-11-21T12:37:44;9.43;;;5.57;;
65045;SDS011;54657;52.022;5.534;2023-11-21T12:40:11;7.38;;;5.68;;
65045;SDS011;54657;52.022;5.534;2023-11-21T12:42:44;8.02;;;5.20;;
65045;SDS011;54657;52.022;5.534;2023-11-21T12:48:01;9.68;;;6.18;;
65045;SDS011;54657;52.022;5.534;2023-11-21T12:50:32;9.52;;;6.57;;
65045;SDS011;54657;52.022;5.534;2023-11-21T12:53:00;9.15;;;6.63;;
65045;SDS011;54657;52.022;5.534;2023-11-21T12:55:29;12.45;;;6.70;;
65045;SDS011;54657;52.022;5.534;2023-11-21T12:57:55;8.93;;;5.65;;
65045;SDS011;54657;52.022;5.534;2023-11-21T13:00:31;9.80;;;6.22;;
65045;SDS011;54657;52.022;5.534;2023-11-21T13:02:59;8.50;;;6.00;;
65045;SDS011;54657;52.022;5.534;2023-11-21T13:05:28;11.48;;;6.72;;
65045;SDS011;54657;52.022;5.534;2023-11-21T13:07:56;9.00;;;6.05;;
65045;SDS011;54657;52.022;5.534;2023-11-21T13:10:24;8.63;;;6.38;;
65045;SDS011;54657;52.022;5.534;2023-11-21T13:12:56;9.95;;;6.50;;
65045;SDS011;54657;52.022;5.534;2023-11-21T13:15:28;12.75;;;7.00;;
65045;SDS011;54657;52.022;5.534;2023-11-21T13:17:56;8.40;;;6.20;;
65045;SDS011;54657;52.022;5.534;2023-11-21T13:20:22;10.70;;;6.78;;
65045;SDS011;54657;52.022;5.534;2023-11-21T13:22:50;10.10;;;7.20;;
65045;SDS011;54657;52.022;5.534;2023-11-21T13:25:19;9.88;;;6.50;;
65045;SDS011;54657;52.022;5.534;2023-11-21T13:27:53;10.25;;;6.90;;
65045;SDS011;54657;52.022;5.534;2023-11-21T13:30:27;10.10;;;6.97;;
65045;SDS011;54657;52.022;5.534;2023-11-21T13:32:58;9.70;;;6.35;;
65045;SDS011;54657;52.022;5.534;2023-11-21T13:35:28;11.00;;;7.40;;
65045;SDS011;54657;52.022;5.534;2023-11-21T13:38:06;8.75;;;6.80;;
65045;SDS011;54657;52.022;5.534;2023-11-21T13:40:34;9.45;;;7.13;;
65045;SDS011;54657;52.022;5.534;2023-11-21T13:43:15;8.55;;;6.55;;
65045;SDS011;54657;52.022;5.534;2023-11-21T13:45:43;9.68;;;6.72;;
65045;SDS011;54657;52.022;5.534;2023-11-21T13:48:11;9.13;;;6.78;;
65045;SDS011;54657;52.022;5.534;2023-11-21T13:50:39;8.88;;;6.47;;
65045;SDS011;54657;52.022;5.534;2023-11-21T13:53:13;9.95;;;6.78;;
65045;SDS011;54657;52.022;5.534;2023-11-21T13:55:50;10.40;;;6.93;;
65045;SDS011;54657;52.022;5.534;2023-11-21T13:58:19;12.25;;;7.00;;
65045;SDS011;54657;52.022;5.534;2023-11-21T14:00:49;8.05;;;6.43;;
65045;SDS011;54657;52.022;5.534;2023-11-21T14:03:25;10.13;;;6.55;;
65045;SDS011;54657;52.022;5.534;2023-11-21T14:06:03;7.55;;;5.13;;
65045;SDS011;54657;52.022;5.534;2023-11-21T14:08:34;5.65;;;4.18;;
65045;SDS011;54657;52.022;5.534;2023-11-21T14:10:59;7.30;;;4.60;;
65045;SDS011;54657;52.022;5.534;2023-11-21T14:13:28;6.88;;;4.60;;
65045;SDS011;54657;52.022;5.534;2023-11-21T14:15:53;5.20;;;3.63;;
65045;SDS011;54657;52.022;5.534;2023-11-21T14:18:24;6.05;;;4.03;;
65045;SDS011;54657;52.022;5.534;2023-11-21T14:20:59;6.53;;;4.20;;
65045;SDS011;54657;52.022;5.534;2023-11-21T14:23:24;5.70;;;3.90;;
65045;SDS011;54657;52.022;5.534;2023-11-21T14:25:50;6.43;;;4.00;;
65045;SDS011;54657;52.022;5.534;2023-11-21T14:28:16;6.78;;;4.43;;
65045;SDS011;54657;52.022;5.534;2023-11-21T14:30:43;8.10;;;5.00;;
65045;SDS011;54657;52.022;5.534;2023-11-21T14:33:11;6.38;;;4.32;;
65045;SDS011;54657;52.022;5.534;2023-11-21T14:35:37;10.40;;;6.15;;
65045;SDS011;54657;52.022;5.534;2023-11-21T14:38:02;8.55;;;5.55;;
65045;SDS011;54657;52.022;5.534;2023-11-21T14:40:30;9.57;;;6.35;;
65045;SDS011;54657;52.022;5.534;2023-11-21T14:42:59;8.23;;;5.85;;
65045;SDS011;54657;52.022;5.534;2023-11-21T14:45:25;11.05;;;6.82;;
65045;SDS011;54657;52.022;5.534;2023-11-21T14:47:52;9.93;;;6.68;;
65045;SDS011;54657;52.022;5.534;2023-11-21T14:50:31;11.23;;;7.07;;
65045;SDS011;54657;52.022;5.534;2023-11-21T14:53:20;11.85;;;7.47;;
65045;SDS011;54657;52.022;5.534;2023-11-21T14:56:06;14.98;;;8.27;;
65045;SDS011;54657;52.022;5.534;2023-11-21T14:58:32;13.75;;;8.60;;
65045;SDS011;54657;52.022;5.534;2023-11-21T15:00:58;13.80;;;9.45;;
65045;SDS011;54657;52.022;5.534;2023-11-21T15:03:26;10.93;;;7.35;;
65045;SDS011;54657;52.022;5.534;2023-11-21T15:05:58;16.05;;;9.00;;